sensor_id;sensor_type;location;lat;lon;timestamp;P1;durP1;ratioP1;P2;durP2;ratioP2
46653;SDS011;38960;51.074;17.004;2022-12-05T00:02:01;66.63;;;37.97;;
46653;SDS011;38960;51.074;17.004;2022-12-05T00:04:27;67.10;;;37.83;;
46653;SDS011;38960;51.074;17.004;2022-12-05T00:06:53;67.47;;;36.73;;
46653;SDS011;38960;51.074;17.004;2022-12-05T00:09:18;67.43;;;37.50;;
46653;SDS011;38960;51.074;17.004;2022-12-05T00:11:44;78.23;;;40.77;;
46653;SDS011;38960;51.074;17.004;2022-12-05T00:14:10;68.63;;;35.03;;
46653;SDS011;38960;51.074;17.004;2022-12-05T00:16:37;71.20;;;36.53;;
46653;SDS011;38960;51.074;17.004;2022-12-05T00:19:04;66.40;;;36.97;;
46653;SDS011;38960;51.074;17.004;2022-12-05T00:21:31;64.13;;;36.00;;
46653;SDS011;38960;51.074;17.004;2022-12-05T00:23:58;67.40;;;37.93;;
46653;SDS011;38960;51.074;17.004;2022-12-05T00:26:25;66.43;;;36.97;;
46653;SDS011;38960;51.074;17.004;2022-12-05T00:28:51;73.77;;;38.90;;
46653;SDS011;38960;51.074;17.004;2022-12-05T00:31:21;70.80;;;35.83;;
46653;SDS011;38960;51.074;17.004;2022-12-05T00:33:47;59.27;;;34.83;;
46653;SDS011;38960;51.074;17.004;2022-12-05T00:36:14;57.50;;;33.13;;
46653;SDS011;38960;51.074;17.004;2022-12-05T00:38:42;62.43;;;34.30;;
46653;SDS011;38960;51.074;17.004;2022-12-05T00:41:12;64.90;;;35.23;;
46653;SDS011;38960;51.074;17.004;2022-12-05T00:43:42;64.47;;;36.47;;
46653;SDS011;38960;51.074;17.004;2022-12-05T00:46:12;60.17;;;34.10;;
46653;SDS011;38960;51.074;17.004;2022-12-05T00:48:39;61.17;;;33.80;;
46653;SDS011;38960;51.074;17.004;2022-12-05T00:51:06;64.07;;;35.47;;
46653;SDS011;38960;51.074;17.004;2022-12-05T00:53:34;63.90;;;35.63;;
46653;SDS011;38960;51.074;17.004;2022-12-05T00:56:04;64.43;;;35.07;;
46653;SDS011;38960;51.074;17.004;2022-12-05T00:58:31;66.35;;;35.28;;
46653;SDS011;38960;51.074;17.004;2022-12-05T01:01:04;68.73;;;36.43;;
46653;SDS011;38960;51.074;17.004;2022-12-05T01:03:39;68.45;;;37.00;;
46653;SDS011;38960;51.074;17.004;2022-12-05T01:06:05;60.03;;;32.50;;
46653;SDS011;38960;51.074;17.004;2022-12-05T01:08:32;62.67;;;34.80;;
46653;SDS011;38960;51.074;17.004;2022-12-05T01:10:58;62.80;;;36.07;;
46653;SDS011;38960;51.074;17.004;2022-12-05T01:13:24;66.83;;;36.30;;
46653;SDS011;38960;51.074;17.004;2022-12-05T01:15:50;69.50;;;35.90;;
46653;SDS011;38960;51.074;17.004;2022-12-05T01:18:17;61.63;;;34.13;;
46653;SDS011;38960;51.074;17.004;2022-12-05T01:20:43;67.17;;;37.10;;
46653;SDS011;38960;51.074;17.004;2022-12-05T01:23:09;60.13;;;33.57;;
46653;SDS011;38960;51.074;17.004;2022-12-05T01:25:38;68.43;;;37.60;;
46653;SDS011;38960;51.074;17.004;2022-12-05T01:28:04;66.57;;;36.17;;
46653;SDS011;38960;51.074;17.004;2022-12-05T01:30:30;70.47;;;38.00;;
46653;SDS011;38960;51.074;17.004;2022-12-05T01:32:55;68.70;;;36.53;;
46653;SDS011;38960;51.074;17.004;2022-12-05T01:35:21;69.83;;;36.50;;
46653;SDS011;38960;51.074;17.004;2022-12-05T01:37:46;67.07;;;36.73;;
46653;SDS011;38960;51.074;17.004;2022-12-05T01:40:12;70.87;;;38.00;;
46653;SDS011;38960;51.074;17.004;2022-12-05T01:42:38;64.40;;;36.30;;
46653;SDS011;38960;51.074;17.004;2022-12-05T01:45:06;63.03;;;35.33;;
46653;SDS011;38960;51.074;17.004;2022-12-05T01:47:37;60.40;;;36.07;;
46653;SDS011;38960;51.074;17.004;2022-12-05T01:50:03;67.33;;;36.50;;
46653;SDS011;38960;51.074;17.004;2022-12-05T01:52:29;62.90;;;34.83;;
46653;SDS011;38960;51.074;17.004;2022-12-05T01:54:57;62.80;;;35.60;;
46653;SDS011;38960;51.074;17.004;2022-12-05T01:57:25;65.73;;;36.90;;
46653;SDS011;38960;51.074;17.004;2022-12-05T01:59:51;67.07;;;38.00;;
46653;SDS011;38960;51.074;17.004;2022-12-05T02:02:20;72.93;;;37.77;;
46653;SDS011;38960;51.074;17.004;2022-12-05T02:05:03;69.63;;;38.97;;
46653;SDS011;38960;51.074;17.004;2022-12-05T02:07:31;65.63;;;38.03;;
46653;SDS011;38960;51.074;17.004;2022-12-05T02:09:57;70.23;;;38.67;;
46653;SDS011;38960;51.074;17.004;2022-12-05T02:12:23;64.67;;;36.93;;
46653;SDS011;38960;51.074;17.004;2022-12-05T02:19:58;56.55;;;34.67;;
46653;SDS011;38960;51.074;17.004;2022-12-05T02:22:36;64.63;;;35.47;;
46653;SDS011;38960;51.074;17.004;2022-12-05T02:25:24;55.87;;;33.07;;
46653;SDS011;38960;51.074;17.004;2022-12-05T02:30:55;48.43;;;30.77;;
46653;SDS011;38960;51.074;17.004;2022-12-05T02:36:10;55.47;;;32.43;;
46653;SDS011;38960;51.074;17.004;2022-12-05T02:44:10;48.40;;;29.73;;
46653;SDS011;38960;51.074;17.004;2022-12-05T02:46:37;50.63;;;30.33;;
46653;SDS011;38960;51.074;17.004;2022-12-05T02:49:06;46.10;;;29.97;;
46653;SDS011;38960;51.074;17.004;2022-12-05T02:51:40;48.03;;;29.42;;
46653;SDS011;38960;51.074;17.004;2022-12-05T02:54:09;48.00;;;30.90;;
46653;SDS011;38960;51.074;17.004;2022-12-05T02:56:38;47.53;;;31.00;;
46653;SDS011;38960;51.074;17.004;2022-12-05T02:59:05;48.83;;;29.53;;
46653;SDS011;38960;51.074;17.004;2022-12-05T03:01:30;46.00;;;28.70;;
46653;SDS011;38960;51.074;17.004;2022-12-05T03:03:58;45.73;;;28.17;;
46653;SDS011;38960;51.074;17.004;2022-12-05T03:06:31;45.90;;;28.03;;
46653;SDS011;38960;51.074;17.004;2022-12-05T03:09:07;47.03;;;26.87;;
46653;SDS011;38960;51.074;17.004;2022-12-05T03:11:40;45.80;;;29.03;;
46653;SDS011;38960;51.074;17.004;2022-12-05T03:14:10;46.87;;;29.23;;
46653;SDS011;38960;51.074;17.004;2022-12-05T03:16:40;48.33;;;30.03;;
46653;SDS011;38960;51.074;17.004;2022-12-05T03:22:03;50.73;;;32.27;;
46653;SDS011;38960;51.074;17.004;2022-12-05T03:24:33;49.23;;;29.30;;
46653;SDS011;38960;51.074;17.004;2022-12-05T03:37:07;47.57;;;31.67;;
46653;SDS011;38960;51.074;17.004;2022-12-05T03:39:36;51.40;;;31.00;;
46653;SDS011;38960;51.074;17.004;2022-12-05T03:42:15;47.23;;;29.77;;
46653;SDS011;38960;51.074;17.004;2022-12-05T03:44:44;46.27;;;29.50;;
46653;SDS011;38960;51.074;17.004;2022-12-05T03:47:31;47.92;;;29.17;;
46653;SDS011;38960;51.074;17.004;2022-12-05T03:50:05;48.93;;;29.67;;
46653;SDS011;38960;51.074;17.004;2022-12-05T03:52:36;46.90;;;29.63;;
46653;SDS011;38960;51.074;17.004;2022-12-05T03:55:13;48.70;;;29.60;;
46653;SDS011;38960;51.074;17.004;2022-12-05T03:57:41;49.57;;;31.33;;
46653;SDS011;38960;51.074;17.004;2022-12-05T04:00:10;48.37;;;28.40;;
46653;SDS011;38960;51.074;17.004;2022-12-05T04:02:43;48.60;;;28.60;;
46653;SDS011;38960;51.074;17.004;2022-12-05T04:05:25;47.07;;;29.37;;
46653;SDS011;38960;51.074;17.004;2022-12-05T04:08:07;48.33;;;28.60;;
46653;SDS011;38960;51.074;17.004;2022-12-05T04:10:37;45.70;;;27.73;;
46653;SDS011;38960;51.074;17.004;2022-12-05T04:13:21;48.33;;;28.83;;
46653;SDS011;38960;51.074;17.004;2022-12-05T04:15:55;47.13;;;29.30;;
46653;SDS011;38960;51.074;17.004;2022-12-05T04:18:43;47.93;;;28.43;;
46653;SDS011;38960;51.074;17.004;2022-12-05T04:21:13;44.90;;;27.83;;
46653;SDS011;38960;51.074;17.004;2022-12-05T04:23:59;44.90;;;27.90;;
46653;SDS011;38960;51.074;17.004;2022-12-05T04:26:44;45.93;;;28.93;;
46653;SDS011;38960;51.074;17.004;2022-12-05T04:29:14;47.57;;;28.40;;
46653;SDS011;38960;51.074;17.004;2022-12-05T04:31:43;47.57;;;28.10;;
46653;SDS011;38960;51.074;17.004;2022-12-05T04:34:13;46.27;;;27.57;;
46653;SDS011;38960;51.074;17.004;2022-12-05T04:36:49;47.37;;;28.10;;
46653;SDS011;38960;51.074;17.004;2022-12-05T04:39:23;45.87;;;27.93;;
46653;SDS011;38960;51.074;17.004;2022-12-05T04:41:56;44.53;;;27.30;;
46653;SDS011;38960;51.074;17.004;2022-12-05T04:44:26;42.73;;;26.93;;
46653;SDS011;38960;51.074;17.004;2022-12-05T04:46:54;40.37;;;26.70;;
46653;SDS011;38960;51.074;17.004;2022-12-05T04:49:21;43.50;;;28.00;;
46653;SDS011;38960;51.074;17.004;2022-12-05T04:51:49;44.40;;;27.60;;
46653;SDS011;38960;51.074;17.004;2022-12-05T04:54:18;41.77;;;24.53;;
46653;SDS011;38960;51.074;17.004;2022-12-05T04:56:45;45.03;;;26.70;;
46653;SDS011;38960;51.074;17.004;2022-12-05T04:59:13;40.33;;;24.87;;
46653;SDS011;38960;51.074;17.004;2022-12-05T05:01:40;40.87;;;24.93;;
46653;SDS011;38960;51.074;17.004;2022-12-05T05:04:11;42.10;;;27.40;;
46653;SDS011;38960;51.074;17.004;2022-12-05T05:06:39;46.25;;;27.27;;
46653;SDS011;38960;51.074;17.004;2022-12-05T05:09:06;40.27;;;25.63;;
46653;SDS011;38960;51.074;17.004;2022-12-05T05:11:32;40.13;;;24.17;;
46653;SDS011;38960;51.074;17.004;2022-12-05T05:13:58;47.80;;;27.90;;
46653;SDS011;38960;51.074;17.004;2022-12-05T05:16:28;47.50;;;26.77;;
46653;SDS011;38960;51.074;17.004;2022-12-05T05:18:56;38.60;;;24.40;;
46653;SDS011;38960;51.074;17.004;2022-12-05T05:21:23;43.47;;;25.77;;
46653;SDS011;38960;51.074;17.004;2022-12-05T05:23:50;39.63;;;24.73;;
46653;SDS011;38960;51.074;17.004;2022-12-05T05:26:16;40.20;;;24.73;;
46653;SDS011;38960;51.074;17.004;2022-12-05T05:28:43;41.60;;;24.50;;
46653;SDS011;38960;51.074;17.004;2022-12-05T05:31:09;39.90;;;24.43;;
46653;SDS011;38960;51.074;17.004;2022-12-05T05:33:34;42.13;;;25.60;;
46653;SDS011;38960;51.074;17.004;2022-12-05T05:36:01;44.30;;;26.17;;
46653;SDS011;38960;51.074;17.004;2022-12-05T05:38:33;40.47;;;25.60;;
46653;SDS011;38960;51.074;17.004;2022-12-05T05:41:00;38.77;;;23.40;;
46653;SDS011;38960;51.074;17.004;2022-12-05T05:43:25;41.63;;;25.20;;
46653;SDS011;38960;51.074;17.004;2022-12-05T05:45:51;44.87;;;27.50;;
46653;SDS011;38960;51.074;17.004;2022-12-05T05:48:16;42.77;;;25.00;;
46653;SDS011;38960;51.074;17.004;2022-12-05T05:50:42;39.47;;;24.60;;
46653;SDS011;38960;51.074;17.004;2022-12-05T05:53:09;43.57;;;25.93;;
46653;SDS011;38960;51.074;17.004;2022-12-05T05:55:37;43.10;;;26.50;;
46653;SDS011;38960;51.074;17.004;2022-12-05T05:58:03;42.27;;;25.63;;
46653;SDS011;38960;51.074;17.004;2022-12-05T06:00:29;42.53;;;26.70;;
46653;SDS011;38960;51.074;17.004;2022-12-05T06:02:54;43.43;;;26.83;;
46653;SDS011;38960;51.074;17.004;2022-12-05T06:05:20;43.23;;;25.47;;
46653;SDS011;38960;51.074;17.004;2022-12-05T06:07:45;41.77;;;25.27;;
46653;SDS011;38960;51.074;17.004;2022-12-05T06:10:11;43.33;;;25.80;;
46653;SDS011;38960;51.074;17.004;2022-12-05T06:12:36;45.13;;;27.33;;
46653;SDS011;38960;51.074;17.004;2022-12-05T06:15:02;44.27;;;27.20;;
46653;SDS011;38960;51.074;17.004;2022-12-05T06:17:28;43.30;;;27.07;;
46653;SDS011;38960;51.074;17.004;2022-12-05T06:19:54;48.87;;;27.43;;
46653;SDS011;38960;51.074;17.004;2022-12-05T06:22:19;44.37;;;26.67;;
46653;SDS011;38960;51.074;17.004;2022-12-05T06:24:45;39.80;;;25.77;;
46653;SDS011;38960;51.074;17.004;2022-12-05T06:27:10;40.77;;;26.27;;
46653;SDS011;38960;51.074;17.004;2022-12-05T06:29:36;46.83;;;26.90;;
46653;SDS011;38960;51.074;17.004;2022-12-05T06:32:01;43.33;;;26.27;;
46653;SDS011;38960;51.074;17.004;2022-12-05T06:34:27;43.73;;;26.20;;
46653;SDS011;38960;51.074;17.004;2022-12-05T06:36:53;40.77;;;25.73;;
46653;SDS011;38960;51.074;17.004;2022-12-05T06:39:18;39.63;;;24.37;;
46653;SDS011;38960;51.074;17.004;2022-12-05T06:41:44;43.87;;;25.67;;
46653;SDS011;38960;51.074;17.004;2022-12-05T06:44:09;42.73;;;26.13;;
46653;SDS011;38960;51.074;17.004;2022-12-05T06:46:35;41.20;;;24.87;;
46653;SDS011;38960;51.074;17.004;2022-12-05T06:49:00;39.30;;;25.60;;
46653;SDS011;38960;51.074;17.004;2022-12-05T06:51:26;45.17;;;26.30;;
46653;SDS011;38960;51.074;17.004;2022-12-05T06:53:51;42.93;;;25.30;;
46653;SDS011;38960;51.074;17.004;2022-12-05T06:56:18;42.57;;;25.07;;
46653;SDS011;38960;51.074;17.004;2022-12-05T06:58:45;40.13;;;25.50;;
46653;SDS011;38960;51.074;17.004;2022-12-05T07:01:12;43.37;;;26.77;;
46653;SDS011;38960;51.074;17.004;2022-12-05T07:03:58;41.87;;;26.33;;
46653;SDS011;38960;51.074;17.004;2022-12-05T07:06:23;42.83;;;25.27;;
46653;SDS011;38960;51.074;17.004;2022-12-05T07:08:49;40.67;;;24.73;;
46653;SDS011;38960;51.074;17.004;2022-12-05T07:11:15;49.83;;;28.67;;
46653;SDS011;38960;51.074;17.004;2022-12-05T07:13:40;42.83;;;26.30;;
46653;SDS011;38960;51.074;17.004;2022-12-05T07:16:06;42.10;;;27.27;;
46653;SDS011;38960;51.074;17.004;2022-12-05T07:18:32;44.83;;;25.57;;
46653;SDS011;38960;51.074;17.004;2022-12-05T07:20:59;37.77;;;23.57;;
46653;SDS011;38960;51.074;17.004;2022-12-05T07:23:26;40.77;;;25.80;;
46653;SDS011;38960;51.074;17.004;2022-12-05T07:25:52;46.13;;;26.10;;
46653;SDS011;38960;51.074;17.004;2022-12-05T07:28:18;44.37;;;25.60;;
46653;SDS011;38960;51.074;17.004;2022-12-05T07:30:44;43.23;;;25.83;;
46653;SDS011;38960;51.074;17.004;2022-12-05T07:33:09;44.90;;;26.33;;
46653;SDS011;38960;51.074;17.004;2022-12-05T07:35:34;45.17;;;26.10;;
46653;SDS011;38960;51.074;17.004;2022-12-05T07:38:00;42.50;;;26.33;;
46653;SDS011;38960;51.074;17.004;2022-12-05T07:40:26;38.47;;;24.47;;
46653;SDS011;38960;51.074;17.004;2022-12-05T07:42:52;47.37;;;28.40;;
46653;SDS011;38960;51.074;17.004;2022-12-05T07:45:18;38.07;;;25.07;;
46653;SDS011;38960;51.074;17.004;2022-12-05T07:47:44;42.67;;;26.23;;
46653;SDS011;38960;51.074;17.004;2022-12-05T07:50:10;44.50;;;25.97;;
46653;SDS011;38960;51.074;17.004;2022-12-05T07:52:35;41.53;;;24.97;;
46653;SDS011;38960;51.074;17.004;2022-12-05T07:55:01;43.30;;;27.73;;
46653;SDS011;38960;51.074;17.004;2022-12-05T07:57:31;42.27;;;26.43;;
46653;SDS011;38960;51.074;17.004;2022-12-05T07:59:57;39.87;;;24.07;;
46653;SDS011;38960;51.074;17.004;2022-12-05T08:02:22;41.37;;;24.93;;
46653;SDS011;38960;51.074;17.004;2022-12-05T08:04:48;42.67;;;25.77;;
46653;SDS011;38960;51.074;17.004;2022-12-05T08:07:14;43.03;;;25.77;;
46653;SDS011;38960;51.074;17.004;2022-12-05T08:09:39;42.77;;;26.53;;
46653;SDS011;38960;51.074;17.004;2022-12-05T08:12:06;44.13;;;25.93;;
46653;SDS011;38960;51.074;17.004;2022-12-05T08:14:32;41.77;;;25.43;;
46653;SDS011;38960;51.074;17.004;2022-12-05T08:16:58;41.17;;;26.20;;
46653;SDS011;38960;51.074;17.004;2022-12-05T08:19:23;43.83;;;26.33;;
46653;SDS011;38960;51.074;17.004;2022-12-05T08:21:49;44.70;;;27.10;;
46653;SDS011;38960;51.074;17.004;2022-12-05T08:24:16;45.20;;;28.30;;
46653;SDS011;38960;51.074;17.004;2022-12-05T08:26:42;43.73;;;27.47;;
46653;SDS011;38960;51.074;17.004;2022-12-05T08:29:08;44.47;;;25.83;;
46653;SDS011;38960;51.074;17.004;2022-12-05T08:31:38;48.13;;;26.67;;
46653;SDS011;38960;51.074;17.004;2022-12-05T08:34:06;43.43;;;26.47;;
46653;SDS011;38960;51.074;17.004;2022-12-05T08:36:32;48.00;;;27.17;;
46653;SDS011;38960;51.074;17.004;2022-12-05T08:38:58;50.10;;;27.83;;
46653;SDS011;38960;51.074;17.004;2022-12-05T08:41:25;44.17;;;27.00;;
46653;SDS011;38960;51.074;17.004;2022-12-05T08:43:58;47.20;;;28.23;;
46653;SDS011;38960;51.074;17.004;2022-12-05T08:46:27;48.63;;;27.77;;
46653;SDS011;38960;51.074;17.004;2022-12-05T08:48:53;45.80;;;26.93;;
46653;SDS011;38960;51.074;17.004;2022-12-05T08:51:19;47.23;;;27.43;;
46653;SDS011;38960;51.074;17.004;2022-12-05T08:53:44;45.67;;;28.50;;
46653;SDS011;38960;51.074;17.004;2022-12-05T08:56:10;45.33;;;27.80;;
46653;SDS011;38960;51.074;17.004;2022-12-05T08:58:36;45.13;;;27.37;;
46653;SDS011;38960;51.074;17.004;2022-12-05T09:01:09;46.43;;;29.13;;
46653;SDS011;38960;51.074;17.004;2022-12-05T09:03:36;48.93;;;28.40;;
46653;SDS011;38960;51.074;17.004;2022-12-05T09:08:44;46.13;;;27.50;;
46653;SDS011;38960;51.074;17.004;2022-12-05T09:11:11;53.63;;;31.10;;
46653;SDS011;38960;51.074;17.004;2022-12-05T09:13:42;53.20;;;29.67;;
46653;SDS011;38960;51.074;17.004;2022-12-05T09:16:11;47.37;;;29.53;;
46653;SDS011;38960;51.074;17.004;2022-12-05T09:18:39;48.08;;;30.05;;
46653;SDS011;38960;51.074;17.004;2022-12-05T09:21:15;48.43;;;29.63;;
46653;SDS011;38960;51.074;17.004;2022-12-05T09:23:45;52.80;;;30.30;;
46653;SDS011;38960;51.074;17.004;2022-12-05T09:26:14;53.73;;;30.53;;
46653;SDS011;38960;51.074;17.004;2022-12-05T09:28:41;49.90;;;29.90;;
46653;SDS011;38960;51.074;17.004;2022-12-05T09:31:08;48.07;;;29.10;;
46653;SDS011;38960;51.074;17.004;2022-12-05T09:33:35;51.97;;;30.80;;
46653;SDS011;38960;51.074;17.004;2022-12-05T09:36:21;49.60;;;28.87;;
46653;SDS011;38960;51.074;17.004;2022-12-05T09:38:48;49.07;;;30.40;;
46653;SDS011;38960;51.074;17.004;2022-12-05T09:41:25;49.80;;;30.20;;
46653;SDS011;38960;51.074;17.004;2022-12-05T09:44:36;48.53;;;29.33;;
46653;SDS011;38960;51.074;17.004;2022-12-05T09:50:34;54.33;;;32.03;;
46653;SDS011;38960;51.074;17.004;2022-12-05T09:52:42;58.47;;;32.60;;
46653;SDS011;38960;51.074;17.004;2022-12-05T09:55:19;49.78;;;31.27;;
46653;SDS011;38960;51.074;17.004;2022-12-05T09:57:47;57.97;;;33.03;;
46653;SDS011;38960;51.074;17.004;2022-12-05T10:00:16;54.97;;;33.33;;
46653;SDS011;38960;51.074;17.004;2022-12-05T10:05:12;55.47;;;33.93;;
46653;SDS011;38960;51.074;17.004;2022-12-05T10:07:50;60.60;;;35.70;;
46653;SDS011;38960;51.074;17.004;2022-12-05T10:10:31;53.23;;;31.37;;
46653;SDS011;38960;51.074;17.004;2022-12-05T10:13:08;58.57;;;33.77;;
46653;SDS011;38960;51.074;17.004;2022-12-05T10:15:41;53.67;;;32.13;;
46653;SDS011;38960;51.074;17.004;2022-12-05T10:23:58;66.37;;;38.03;;
46653;SDS011;38960;51.074;17.004;2022-12-05T10:26:33;54.97;;;32.23;;
46653;SDS011;38960;51.074;17.004;2022-12-05T10:31:31;56.83;;;34.60;;
46653;SDS011;38960;51.074;17.004;2022-12-05T10:34:03;55.55;;;33.08;;
46653;SDS011;38960;51.074;17.004;2022-12-05T10:36:34;51.63;;;32.07;;
46653;SDS011;38960;51.074;17.004;2022-12-05T10:38:59;52.27;;;30.47;;
46653;SDS011;38960;51.074;17.004;2022-12-05T10:41:25;62.63;;;33.53;;
46653;SDS011;38960;51.074;17.004;2022-12-05T10:43:52;57.37;;;33.73;;
46653;SDS011;38960;51.074;17.004;2022-12-05T10:46:18;65.00;;;35.57;;
46653;SDS011;38960;51.074;17.004;2022-12-05T10:48:44;61.33;;;34.63;;
46653;SDS011;38960;51.074;17.004;2022-12-05T10:51:14;57.20;;;32.93;;
46653;SDS011;38960;51.074;17.004;2022-12-05T10:59:01;58.80;;;34.10;;
46653;SDS011;38960;51.074;17.004;2022-12-05T11:01:27;62.17;;;38.63;;
46653;SDS011;38960;51.074;17.004;2022-12-05T11:03:57;63.17;;;35.97;;
46653;SDS011;38960;51.074;17.004;2022-12-05T11:06:28;64.73;;;36.80;;
46653;SDS011;38960;51.074;17.004;2022-12-05T11:08:56;64.37;;;37.23;;
46653;SDS011;38960;51.074;17.004;2022-12-05T11:11:27;65.37;;;36.30;;
46653;SDS011;38960;51.074;17.004;2022-12-05T11:13:58;72.47;;;40.13;;
46653;SDS011;38960;51.074;17.004;2022-12-05T11:16:33;65.07;;;38.93;;
46653;SDS011;38960;51.074;17.004;2022-12-05T11:21:50;71.07;;;37.80;;
46653;SDS011;38960;51.074;17.004;2022-12-05T11:24:21;66.03;;;36.60;;
46653;SDS011;38960;51.074;17.004;2022-12-05T11:26:49;60.67;;;35.53;;
46653;SDS011;38960;51.074;17.004;2022-12-05T11:29:32;58.60;;;35.63;;
46653;SDS011;38960;51.074;17.004;2022-12-05T11:32:03;65.37;;;37.90;;
46653;SDS011;38960;51.074;17.004;2022-12-05T11:34:46;60.47;;;34.90;;
46653;SDS011;38960;51.074;17.004;2022-12-05T11:37:19;71.37;;;37.60;;
46653;SDS011;38960;51.074;17.004;2022-12-05T11:39:50;65.30;;;36.23;;
46653;SDS011;38960;51.074;17.004;2022-12-05T11:42:31;66.10;;;35.47;;
46653;SDS011;38960;51.074;17.004;2022-12-05T11:48:07;63.13;;;35.77;;
46653;SDS011;38960;51.074;17.004;2022-12-05T11:53:39;62.57;;;36.57;;
46653;SDS011;38960;51.074;17.004;2022-12-05T11:56:49;62.83;;;36.80;;
46653;SDS011;38960;51.074;17.004;2022-12-05T12:02:14;65.20;;;37.97;;
46653;SDS011;38960;51.074;17.004;2022-12-05T12:11:15;67.10;;;39.97;;
46653;SDS011;38960;51.074;17.004;2022-12-05T12:22:40;64.87;;;38.93;;
46653;SDS011;38960;51.074;17.004;2022-12-05T12:25:32;60.40;;;35.87;;
46653;SDS011;38960;51.074;17.004;2022-12-05T12:30:34;67.93;;;39.20;;
46653;SDS011;38960;51.074;17.004;2022-12-05T12:33:12;68.57;;;38.50;;
46653;SDS011;38960;51.074;17.004;2022-12-05T12:41:12;72.03;;;39.27;;
46653;SDS011;38960;51.074;17.004;2022-12-05T12:46:26;68.05;;;38.20;;
46653;SDS011;38960;51.074;17.004;2022-12-05T12:49:21;64.63;;;38.60;;
46653;SDS011;38960;51.074;17.004;2022-12-05T12:51:52;66.07;;;38.90;;
46653;SDS011;38960;51.074;17.004;2022-12-05T13:05:05;62.53;;;37.83;;
46653;SDS011;38960;51.074;17.004;2022-12-05T13:07:35;68.17;;;39.00;;
46653;SDS011;38960;51.074;17.004;2022-12-05T13:10:16;63.70;;;37.53;;
46653;SDS011;38960;51.074;17.004;2022-12-05T13:12:48;64.97;;;38.80;;
46653;SDS011;38960;51.074;17.004;2022-12-05T13:15:16;71.07;;;39.73;;
46653;SDS011;38960;51.074;17.004;2022-12-05T13:17:53;66.23;;;38.63;;
46653;SDS011;38960;51.074;17.004;2022-12-05T13:20:20;70.43;;;40.60;;
46653;SDS011;38960;51.074;17.004;2022-12-05T13:22:46;72.23;;;38.77;;
46653;SDS011;38960;51.074;17.004;2022-12-05T13:25:17;66.33;;;40.03;;
46653;SDS011;38960;51.074;17.004;2022-12-05T13:27:57;62.90;;;38.33;;
46653;SDS011;38960;51.074;17.004;2022-12-05T13:30:26;62.38;;;38.17;;
46653;SDS011;38960;51.074;17.004;2022-12-05T13:32:59;65.53;;;38.57;;
46653;SDS011;38960;51.074;17.004;2022-12-05T13:41:14;63.90;;;37.87;;
46653;SDS011;38960;51.074;17.004;2022-12-05T13:43:58;65.47;;;38.00;;
46653;SDS011;38960;51.074;17.004;2022-12-05T13:46:28;66.13;;;37.57;;
46653;SDS011;38960;51.074;17.004;2022-12-05T13:51:33;60.77;;;36.40;;
46653;SDS011;38960;51.074;17.004;2022-12-05T14:07:50;64.73;;;39.37;;
46653;SDS011;38960;51.074;17.004;2022-12-05T14:12:55;68.10;;;38.10;;
46653;SDS011;38960;51.074;17.004;2022-12-05T14:15:30;64.47;;;40.93;;
46653;SDS011;38960;51.074;17.004;2022-12-05T14:20:33;65.33;;;38.97;;
46653;SDS011;38960;51.074;17.004;2022-12-05T14:31:22;65.70;;;38.63;;
46653;SDS011;38960;51.074;17.004;2022-12-05T14:36:52;67.63;;;39.03;;
46653;SDS011;38960;51.074;17.004;2022-12-05T14:39:46;77.37;;;42.50;;
46653;SDS011;38960;51.074;17.004;2022-12-05T14:50:43;69.30;;;41.10;;
46653;SDS011;38960;51.074;17.004;2022-12-05T14:55:43;73.83;;;42.67;;
46653;SDS011;38960;51.074;17.004;2022-12-05T14:59:12;70.50;;;40.03;;
46653;SDS011;38960;51.074;17.004;2022-12-05T15:01:17;66.83;;;39.83;;
46653;SDS011;38960;51.074;17.004;2022-12-05T15:06:36;68.77;;;40.60;;
46653;SDS011;38960;51.074;17.004;2022-12-05T15:09:09;68.67;;;40.73;;
46653;SDS011;38960;51.074;17.004;2022-12-05T15:11:59;70.23;;;42.13;;
46653;SDS011;38960;51.074;17.004;2022-12-05T15:14:26;72.77;;;42.60;;
46653;SDS011;38960;51.074;17.004;2022-12-05T15:16:52;74.90;;;42.43;;
46653;SDS011;38960;51.074;17.004;2022-12-05T15:19:21;73.18;;;42.28;;
46653;SDS011;38960;51.074;17.004;2022-12-05T15:21:54;71.97;;;44.73;;
46653;SDS011;38960;51.074;17.004;2022-12-05T15:24:21;74.47;;;43.07;;
46653;SDS011;38960;51.074;17.004;2022-12-05T15:26:48;79.50;;;44.10;;
46653;SDS011;38960;51.074;17.004;2022-12-05T15:40:43;77.32;;;44.33;;
46653;SDS011;38960;51.074;17.004;2022-12-05T15:43:30;80.60;;;46.57;;
46653;SDS011;38960;51.074;17.004;2022-12-05T15:48:44;82.33;;;47.30;;
46653;SDS011;38960;51.074;17.004;2022-12-05T15:51:10;73.83;;;43.53;;
46653;SDS011;38960;51.074;17.004;2022-12-05T16:01:38;72.50;;;42.75;;
46653;SDS011;38960;51.074;17.004;2022-12-05T16:04:14;74.83;;;45.60;;
46653;SDS011;38960;51.074;17.004;2022-12-05T16:06:48;82.53;;;46.55;;
46653;SDS011;38960;51.074;17.004;2022-12-05T16:09:15;75.23;;;44.67;;
46653;SDS011;38960;51.074;17.004;2022-12-05T16:11:49;71.63;;;43.20;;
46653;SDS011;38960;51.074;17.004;2022-12-05T16:14:28;66.83;;;41.60;;
46653;SDS011;38960;51.074;17.004;2022-12-05T16:16:57;74.10;;;45.77;;
46653;SDS011;38960;51.074;17.004;2022-12-05T16:19:27;80.53;;;46.28;;
46653;SDS011;38960;51.074;17.004;2022-12-05T16:24:38;73.20;;;42.90;;
46653;SDS011;38960;51.074;17.004;2022-12-05T16:27:13;78.35;;;43.95;;
46653;SDS011;38960;51.074;17.004;2022-12-05T16:29:40;69.53;;;40.13;;
46653;SDS011;38960;51.074;17.004;2022-12-05T16:32:17;71.80;;;42.13;;
46653;SDS011;38960;51.074;17.004;2022-12-05T16:34:48;70.05;;;40.97;;
46653;SDS011;38960;51.074;17.004;2022-12-05T16:37:46;67.47;;;39.70;;
46653;SDS011;38960;51.074;17.004;2022-12-05T16:40:18;65.57;;;39.30;;
46653;SDS011;38960;51.074;17.004;2022-12-05T16:42:45;66.63;;;37.47;;
46653;SDS011;38960;51.074;17.004;2022-12-05T16:45:10;63.87;;;37.93;;
46653;SDS011;38960;51.074;17.004;2022-12-05T16:53:38;55.07;;;33.77;;
46653;SDS011;38960;51.074;17.004;2022-12-05T16:56:05;58.97;;;35.33;;
46653;SDS011;38960;51.074;17.004;2022-12-05T16:58:31;60.70;;;36.00;;
46653;SDS011;38960;51.074;17.004;2022-12-05T17:00:59;58.43;;;35.33;;
46653;SDS011;38960;51.074;17.004;2022-12-05T17:03:26;59.10;;;34.00;;
46653;SDS011;38960;51.074;17.004;2022-12-05T17:05:53;53.60;;;33.37;;
46653;SDS011;38960;51.074;17.004;2022-12-05T17:08:18;54.90;;;32.50;;
46653;SDS011;38960;51.074;17.004;2022-12-05T17:10:44;58.10;;;34.57;;
46653;SDS011;38960;51.074;17.004;2022-12-05T17:13:12;56.63;;;33.97;;
46653;SDS011;38960;51.074;17.004;2022-12-05T17:15:38;51.83;;;32.37;;
46653;SDS011;38960;51.074;17.004;2022-12-05T17:18:11;54.78;;;33.50;;
46653;SDS011;38960;51.074;17.004;2022-12-05T17:20:39;58.93;;;33.87;;
46653;SDS011;38960;51.074;17.004;2022-12-05T17:23:07;55.65;;;33.00;;
46653;SDS011;38960;51.074;17.004;2022-12-05T17:25:35;50.00;;;31.00;;
46653;SDS011;38960;51.074;17.004;2022-12-05T17:28:02;51.63;;;32.50;;